sensor_id;sensor_type;location;lat;lon;timestamp;temperature;humidity
13591;DHT22;6866;50.778;7.206;2022-12-29T00:01:24;12.20;99.90
13591;DHT22;6866;50.778;7.206;2022-12-29T00:03:50;12.20;99.90
13591;DHT22;6866;50.778;7.206;2022-12-29T00:06:16;12.20;99.90
13591;DHT22;6866;50.778;7.206;2022-12-29T00:08:41;12.20;99.90
13591;DHT22;6866;50.778;7.206;2022-12-29T00:11:12;12.20;99.90
13591;DHT22;6866;50.778;7.206;2022-12-29T00:13:38;12.30;99.90
13591;DHT22;6866;50.778;7.206;2022-12-29T00:16:23;12.20;99.90
13591;DHT22;6866;50.778;7.206;2022-12-29T00:18:48;12.30;99.90
13591;DHT22;6866;50.778;7.206;2022-12-29T00:21:19;12.20;99.90
13591;DHT22;6866;50.778;7.206;2022-12-29T00:24:04;12.20;99.90
13591;DHT22;6866;50.778;7.206;2022-12-29T00:26:58;12.20;99.90
13591;DHT22;6866;50.778;7.206;2022-12-29T00:29:51;12.20;99.90
13591;DHT22;6866;50.778;7.206;2022-12-29T00:32:36;12.30;99.90
13591;DHT22;6866;50.778;7.206;2022-12-29T00:37:51;12.30;99.90
13591;DHT22;6866;50.778;7.206;2022-12-29T00:40:36;12.30;99.90
13591;DHT22;6866;50.778;7.206;2022-12-29T00:43:20;12.30;99.90
13591;DHT22;6866;50.778;7.206;2022-12-29T00:46:04;12.30;99.90
13591;DHT22;6866;50.778;7.206;2022-12-29T00:48:29;12.30;99.90
13591;DHT22;6866;50.778;7.206;2022-12-29T00:51:13;12.30;99.90
13591;DHT22;6866;50.778;7.206;2022-12-29T00:53:39;12.30;99.90
13591;DHT22;6866;50.778;7.206;2022-12-29T00:56:04;12.30;99.90
13591;DHT22;6866;50.778;7.206;2022-12-29T00:58:30;12.30;99.90
13591;DHT22;6866;50.778;7.206;2022-12-29T01:01:03;12.30;99.90
13591;DHT22;6866;50.778;7.206;2022-12-29T01:03:29;12.30;99.90
13591;DHT22;6866;50.778;7.206;2022-12-29T01:05:55;12.30;99.90
13591;DHT22;6866;50.778;7.206;2022-12-29T01:08:21;12.30;99.90
13591;DHT22;6866;50.778;7.206;2022-12-29T01:10:46;12.30;99.90
13591;DHT22;6866;50.778;7.206;2022-12-29T01:13:12;12.30;99.90
13591;DHT22;6866;50.778;7.206;2022-12-29T01:15:37;12.20;99.90
13591;DHT22;6866;50.778;7.206;2022-12-29T01:18:03;12.20;99.90
13591;DHT22;6866;50.778;7.206;2022-12-29T01:20:28;12.20;99.90
13591;DHT22;6866;50.778;7.206;2022-12-29T01:22:54;12.20;99.90
13591;DHT22;6866;50.778;7.206;2022-12-29T01:25:19;12.20;99.90
13591;DHT22;6866;50.778;7.206;2022-12-29T01:27:45;12.20;99.90
13591;DHT22;6866;50.778;7.206;2022-12-29T01:30:11;12.20;99.90
13591;DHT22;6866;50.778;7.206;2022-12-29T01:32:36;12.20;99.90
13591;DHT22;6866;50.778;7.206;2022-12-29T01:35:02;12.30;99.90
13591;DHT22;6866;50.778;7.206;2022-12-29T01:37:28;12.30;99.90
13591;DHT22;6866;50.778;7.206;2022-12-29T01:39:53;12.30;99.90
13591;DHT22;6866;50.778;7.206;2022-12-29T01:42:23;12.30;99.90
13591;DHT22;6866;50.778;7.206;2022-12-29T01:44:57;12.30;99.90
13591;DHT22;6866;50.778;7.206;2022-12-29T01:47:28;12.30;99.90
13591;DHT22;6866;50.778;7.206;2022-12-29T01:49:58;12.30;99.90
13591;DHT22;6866;50.778;7.206;2022-12-29T01:52:26;12.30;99.90
13591;DHT22;6866;50.778;7.206;2022-12-29T01:54:55;12.30;99.90
13591;DHT22;6866;50.778;7.206;2022-12-29T01:57:27;12.30;99.90
13591;DHT22;6866;50.778;7.206;2022-12-29T02:05:09;12.30;99.90
13591;DHT22;6866;50.778;7.206;2022-12-29T02:07:37;12.30;99.90
13591;DHT22;6866;50.778;7.206;2022-12-29T02:10:03;12.40;99.90
13591;DHT22;6866;50.778;7.206;2022-12-29T02:12:29;12.40;99.90
13591;DHT22;6866;50.778;7.206;2022-12-29T02:14:58;12.40;99.90
13591;DHT22;6866;50.778;7.206;2022-12-29T02:21:04;12.40;99.90
13591;DHT22;6866;50.778;7.206;2022-12-29T02:31:44;12.50;99.90
13591;DHT22;6866;50.778;7.206;2022-12-29T02:34:37;12.50;99.90
13591;DHT22;6866;50.778;7.206;2022-12-29T02:37:19;12.40;99.90
13591;DHT22;6866;50.778;7.206;2022-12-29T02:42:38;12.50;99.90
13591;DHT22;6866;50.778;7.206;2022-12-29T02:45:30;12.50;99.90
13591;DHT22;6866;50.778;7.206;2022-12-29T02:48:50;12.50;99.90
13591;DHT22;6866;50.778;7.206;2022-12-29T02:51:03;12.50;99.90
13591;DHT22;6866;50.778;7.206;2022-12-29T02:53:32;12.40;99.90
13591;DHT22;6866;50.778;7.206;2022-12-29T02:56:17;12.50;99.90
13591;DHT22;6866;50.778;7.206;2022-12-29T02:58:43;12.50;99.90
13591;DHT22;6866;50.778;7.206;2022-12-29T03:04:24;12.50;99.90
13591;DHT22;6866;50.778;7.206;2022-12-29T03:07:12;12.50;99.90
13591;DHT22;6866;50.778;7.206;2022-12-29T03:12:56;12.40;99.90
13591;DHT22;6866;50.778;7.206;2022-12-29T03:15:54;12.40;99.90
13591;DHT22;6866;50.778;7.206;2022-12-29T03:24:13;12.40;99.90
13591;DHT22;6866;50.778;7.206;2022-12-29T03:26:41;12.40;99.90
13591;DHT22;6866;50.778;7.206;2022-12-29T03:29:08;12.40;99.90
13591;DHT22;6866;50.778;7.206;2022-12-29T03:31:35;12.40;99.90
13591;DHT22;6866;50.778;7.206;2022-12-29T03:34:03;12.50;99.90
13591;DHT22;6866;50.778;7.206;2022-12-29T03:36:47;12.50;99.90
13591;DHT22;6866;50.778;7.206;2022-12-29T03:39:14;12.50;99.90
13591;DHT22;6866;50.778;7.206;2022-12-29T03:41:41;12.50;99.90
13591;DHT22;6866;50.778;7.206;2022-12-29T03:44:08;12.50;99.90
13591;DHT22;6866;50.778;7.206;2022-12-29T03:46:34;12.50;99.90
13591;DHT22;6866;50.778;7.206;2022-12-29T03:48:59;12.50;99.90
13591;DHT22;6866;50.778;7.206;2022-12-29T03:51:25;12.50;99.90
13591;DHT22;6866;50.778;7.206;2022-12-29T03:53:50;12.50;99.90
13591;DHT22;6866;50.778;7.206;2022-12-29T03:56:16;12.50;99.90
13591;DHT22;6866;50.778;7.206;2022-12-29T03:58:42;12.50;99.90
13591;DHT22;6866;50.778;7.206;2022-12-29T04:01:07;12.50;99.90
13591;DHT22;6866;50.778;7.206;2022-12-29T04:03:33;12.50;99.90
13591;DHT22;6866;50.778;7.206;2022-12-29T04:05:59;12.50;99.90
13591;DHT22;6866;50.778;7.206;2022-12-29T04:08:24;12.50;99.90
13591;DHT22;6866;50.778;7.206;2022-12-29T04:10:50;12.50;99.90
13591;DHT22;6866;50.778;7.206;2022-12-29T04:13:16;12.50;99.90
13591;DHT22;6866;50.778;7.206;2022-12-29T04:15:45;12.50;99.90
13591;DHT22;6866;50.778;7.206;2022-12-29T04:18:11;12.40;99.90
13591;DHT22;6866;50.778;7.206;2022-12-29T04:20:37;12.30;99.90
13591;DHT22;6866;50.778;7.206;2022-12-29T04:23:21;12.30;99.90
13591;DHT22;6866;50.778;7.206;2022-12-29T04:25:47;12.30;99.90
13591;DHT22;6866;50.778;7.206;2022-12-29T04:28:13;12.30;99.90
13591;DHT22;6866;50.778;7.206;2022-12-29T04:30:39;12.30;99.90
13591;DHT22;6866;50.778;7.206;2022-12-29T04:33:05;12.30;99.90
13591;DHT22;6866;50.778;7.206;2022-12-29T04:35:30;12.30;99.90
13591;DHT22;6866;50.778;7.206;2022-12-29T04:37:56;12.30;99.90
13591;DHT22;6866;50.778;7.206;2022-12-29T04:40:21;12.20;99.90
13591;DHT22;6866;50.778;7.206;2022-12-29T04:42:48;12.20;99.90
13591;DHT22;6866;50.778;7.206;2022-12-29T04:45:14;12.20;99.90
13591;DHT22;6866;50.778;7.206;2022-12-29T04:47:39;12.20;99.90
13591;DHT22;6866;50.778;7.206;2022-12-29T04:50:05;12.20;99.90
13591;DHT22;6866;50.778;7.206;2022-12-29T04:52:31;12.20;99.90
13591;DHT22;6866;50.778;7.206;2022-12-29T04:54:56;12.20;99.90
13591;DHT22;6866;50.778;7.206;2022-12-29T04:57:22;12.20;99.90
13591;DHT22;6866;50.778;7.206;2022-12-29T04:59:47;12.20;99.90
13591;DHT22;6866;50.778;7.206;2022-12-29T05:02:13;12.30;99.90
13591;DHT22;6866;50.778;7.206;2022-12-29T05:04:38;12.30;99.90
13591;DHT22;6866;50.778;7.206;2022-12-29T05:07:04;12.30;99.90
13591;DHT22;6866;50.778;7.206;2022-12-29T05:09:29;12.30;99.90
13591;DHT22;6866;50.778;7.206;2022-12-29T05:11:55;12.40;99.90
13591;DHT22;6866;50.778;7.206;2022-12-29T05:14:21;12.30;99.90
13591;DHT22;6866;50.778;7.206;2022-12-29T05:16:46;12.30;99.90
13591;DHT22;6866;50.778;7.206;2022-12-29T05:19:12;12.40;99.90
13591;DHT22;6866;50.778;7.206;2022-12-29T05:21:37;12.30;99.90
13591;DHT22;6866;50.778;7.206;2022-12-29T05:24:03;12.30;99.90
13591;DHT22;6866;50.778;7.206;2022-12-29T05:26:29;12.30;99.90
13591;DHT22;6866;50.778;7.206;2022-12-29T05:28:54;12.30;99.90
13591;DHT22;6866;50.778;7.206;2022-12-29T05:31:20;12.20;99.90
13591;DHT22;6866;50.778;7.206;2022-12-29T05:33:45;12.20;99.90
13591;DHT22;6866;50.778;7.206;2022-12-29T05:36:11;12.20;99.90
13591;DHT22;6866;50.778;7.206;2022-12-29T05:38:36;12.20;99.90
13591;DHT22;6866;50.778;7.206;2022-12-29T05:41:02;12.10;99.90
13591;DHT22;6866;50.778;7.206;2022-12-29T05:43:28;12.10;99.90
13591;DHT22;6866;50.778;7.206;2022-12-29T05:45:53;12.00;99.90
13591;DHT22;6866;50.778;7.206;2022-12-29T05:48:19;12.10;99.90
13591;DHT22;6866;50.778;7.206;2022-12-29T05:50:48;12.10;99.90
13591;DHT22;6866;50.778;7.206;2022-12-29T05:53:14;12.00;99.90
13591;DHT22;6866;50.778;7.206;2022-12-29T05:55:40;12.10;99.90
13591;DHT22;6866;50.778;7.206;2022-12-29T05:58:05;12.10;99.90
13591;DHT22;6866;50.778;7.206;2022-12-29T06:00:31;12.10;99.90
13591;DHT22;6866;50.778;7.206;2022-12-29T06:02:56;12.10;99.90
13591;DHT22;6866;50.778;7.206;2022-12-29T06:05:22;12.00;99.90
13591;DHT22;6866;50.778;7.206;2022-12-29T06:07:47;11.90;99.90
13591;DHT22;6866;50.778;7.206;2022-12-29T06:10:13;11.90;99.90
13591;DHT22;6866;50.778;7.206;2022-12-29T06:12:38;11.80;99.90
13591;DHT22;6866;50.778;7.206;2022-12-29T06:15:04;11.80;99.90
13591;DHT22;6866;50.778;7.206;2022-12-29T06:17:30;11.80;99.90
13591;DHT22;6866;50.778;7.206;2022-12-29T06:19:55;11.80;99.90
13591;DHT22;6866;50.778;7.206;2022-12-29T06:22:21;11.80;99.90
13591;DHT22;6866;50.778;7.206;2022-12-29T06:24:46;11.70;99.90
13591;DHT22;6866;50.778;7.206;2022-12-29T06:27:12;11.70;99.90
13591;DHT22;6866;50.778;7.206;2022-12-29T06:29:39;11.50;99.90
13591;DHT22;6866;50.778;7.206;2022-12-29T06:32:05;11.50;99.90
13591;DHT22;6866;50.778;7.206;2022-12-29T06:34:31;11.50;99.90
13591;DHT22;6866;50.778;7.206;2022-12-29T06:36:57;11.50;99.90
13591;DHT22;6866;50.778;7.206;2022-12-29T06:39:23;11.50;99.90
13591;DHT22;6866;50.778;7.206;2022-12-29T06:41:49;11.50;99.90
13591;DHT22;6866;50.778;7.206;2022-12-29T06:44:16;11.40;99.90
13591;DHT22;6866;50.778;7.206;2022-12-29T06:46:42;11.40;99.90
13591;DHT22;6866;50.778;7.206;2022-12-29T06:49:07;11.40;99.90
13591;DHT22;6866;50.778;7.206;2022-12-29T06:51:32;11.30;99.90
13591;DHT22;6866;50.778;7.206;2022-12-29T06:53:58;11.40;99.90
13591;DHT22;6866;50.778;7.206;2022-12-29T06:56:23;11.40;99.90
13591;DHT22;6866;50.778;7.206;2022-12-29T06:58:49;11.40;99.90
13591;DHT22;6866;50.778;7.206;2022-12-29T07:01:15;11.40;99.90
13591;DHT22;6866;50.778;7.206;2022-12-29T07:03:41;11.40;99.90
13591;DHT22;6866;50.778;7.206;2022-12-29T07:06:08;11.40;99.90
13591;DHT22;6866;50.778;7.206;2022-12-29T07:08:33;11.40;99.90
13591;DHT22;6866;50.778;7.206;2022-12-29T07:10:59;11.30;99.90
13591;DHT22;6866;50.778;7.206;2022-12-29T07:13:24;11.30;99.90
13591;DHT22;6866;50.778;7.206;2022-12-29T07:15:50;11.30;99.90
13591;DHT22;6866;50.778;7.206;2022-12-29T07:18:15;11.30;99.90
13591;DHT22;6866;50.778;7.206;2022-12-29T07:20:41;11.30;99.90
13591;DHT22;6866;50.778;7.206;2022-12-29T07:23:06;11.30;99.90
13591;DHT22;6866;50.778;7.206;2022-12-29T07:25:32;11.30;99.90
13591;DHT22;6866;50.778;7.206;2022-12-29T07:27:58;11.20;99.90
13591;DHT22;6866;50.778;7.206;2022-12-29T07:30:24;11.30;99.90
13591;DHT22;6866;50.778;7.206;2022-12-29T07:32:49;11.30;99.90
13591;DHT22;6866;50.778;7.206;2022-12-29T07:35:15;11.30;99.90
13591;DHT22;6866;50.778;7.206;2022-12-29T07:37:40;11.30;99.90
13591;DHT22;6866;50.778;7.206;2022-12-29T07:40:07;11.30;99.90
13591;DHT22;6866;50.778;7.206;2022-12-29T07:42:32;11.30;99.90
13591;DHT22;6866;50.778;7.206;2022-12-29T07:44:58;11.30;99.90
13591;DHT22;6866;50.778;7.206;2022-12-29T07:47:23;11.30;99.90
13591;DHT22;6866;50.778;7.206;2022-12-29T07:49:49;11.40;99.90
13591;DHT22;6866;50.778;7.206;2022-12-29T07:52:15;11.40;99.90
13591;DHT22;6866;50.778;7.206;2022-12-29T07:54:40;11.40;99.90
13591;DHT22;6866;50.778;7.206;2022-12-29T07:57:06;11.40;99.90
13591;DHT22;6866;50.778;7.206;2022-12-29T07:59:31;11.40;99.90
13591;DHT22;6866;50.778;7.206;2022-12-29T08:01:57;11.40;99.90
13591;DHT22;6866;50.778;7.206;2022-12-29T08:04:23;11.40;99.90
13591;DHT22;6866;50.778;7.206;2022-12-29T08:06:48;11.40;99.90
13591;DHT22;6866;50.778;7.206;2022-12-29T08:09:14;11.40;99.90
13591;DHT22;6866;50.778;7.206;2022-12-29T08:11:39;11.40;99.90
13591;DHT22;6866;50.778;7.206;2022-12-29T08:14:06;11.40;99.90
13591;DHT22;6866;50.778;7.206;2022-12-29T08:16:31;11.40;99.90
13591;DHT22;6866;50.778;7.206;2022-12-29T08:18:57;11.40;99.90
13591;DHT22;6866;50.778;7.206;2022-12-29T08:21:24;11.40;99.90
13591;DHT22;6866;50.778;7.206;2022-12-29T08:23:50;11.40;99.90
13591;DHT22;6866;50.778;7.206;2022-12-29T08:26:15;11.50;99.90
13591;DHT22;6866;50.778;7.206;2022-12-29T08:28:41;11.50;99.90
13591;DHT22;6866;50.778;7.206;2022-12-29T08:31:06;11.50;99.90
13591;DHT22;6866;50.778;7.206;2022-12-29T08:33:32;11.50;99.90
13591;DHT22;6866;50.778;7.206;2022-12-29T08:36:03;11.50;99.90
13591;DHT22;6866;50.778;7.206;2022-12-29T08:38:29;11.50;99.90
13591;DHT22;6866;50.778;7.206;2022-12-29T08:40:58;11.60;99.90
13591;DHT22;6866;50.778;7.206;2022-12-29T08:43:27;11.60;99.90
13591;DHT22;6866;50.778;7.206;2022-12-29T08:45:53;11.70;99.90
13591;DHT22;6866;50.778;7.206;2022-12-29T08:48:19;11.70;99.90
13591;DHT22;6866;50.778;7.206;2022-12-29T08:50:48;11.70;99.90
13591;DHT22;6866;50.778;7.206;2022-12-29T08:53:13;11.70;99.90
13591;DHT22;6866;50.778;7.206;2022-12-29T08:55:39;11.70;99.90
13591;DHT22;6866;50.778;7.206;2022-12-29T08:58:05;11.70;99.90
13591;DHT22;6866;50.778;7.206;2022-12-29T09:00:30;11.60;99.90
13591;DHT22;6866;50.778;7.206;2022-12-29T09:02:56;11.70;99.90
13591;DHT22;6866;50.778;7.206;2022-12-29T09:05:21;11.70;99.90
13591;DHT22;6866;50.778;7.206;2022-12-29T09:07:47;11.70;99.90
13591;DHT22;6866;50.778;7.206;2022-12-29T09:10:12;11.60;99.90
13591;DHT22;6866;50.778;7.206;2022-12-29T09:12:38;11.70;99.90
13591;DHT22;6866;50.778;7.206;2022-12-29T09:15:05;11.70;99.90
13591;DHT22;6866;50.778;7.206;2022-12-29T09:17:30;11.70;99.90
13591;DHT22;6866;50.778;7.206;2022-12-29T09:20:13;11.60;99.90
13591;DHT22;6866;50.778;7.206;2022-12-29T09:22:39;11.60;99.90
13591;DHT22;6866;50.778;7.206;2022-12-29T09:25:05;11.70;99.90
13591;DHT22;6866;50.778;7.206;2022-12-29T09:27:31;11.70;99.90
13591;DHT22;6866;50.778;7.206;2022-12-29T09:29:57;11.70;99.90
13591;DHT22;6866;50.778;7.206;2022-12-29T09:32:22;11.70;99.90
13591;DHT22;6866;50.778;7.206;2022-12-29T09:34:48;11.70;99.90
13591;DHT22;6866;50.778;7.206;2022-12-29T09:37:13;11.70;99.90
13591;DHT22;6866;50.778;7.206;2022-12-29T09:39:39;11.70;99.90
13591;DHT22;6866;50.778;7.206;2022-12-29T09:42:37;11.80;99.90
13591;DHT22;6866;50.778;7.206;2022-12-29T09:45:18;11.80;99.90
13591;DHT22;6866;50.778;7.206;2022-12-29T09:47:45;11.80;99.90
13591;DHT22;6866;50.778;7.206;2022-12-29T09:53:08;11.80;99.90
13591;DHT22;6866;50.778;7.206;2022-12-29T09:55:39;11.80;99.90
13591;DHT22;6866;50.778;7.206;2022-12-29T09:58:15;11.80;99.90
13591;DHT22;6866;50.778;7.206;2022-12-29T10:03:49;11.80;99.90
13591;DHT22;6866;50.778;7.206;2022-12-29T10:06:31;11.80;99.90
13591;DHT22;6866;50.778;7.206;2022-12-29T10:20:14;12.00;99.90
13591;DHT22;6866;50.778;7.206;2022-12-29T10:25:41;12.10;99.90
13591;DHT22;6866;50.778;7.206;2022-12-29T10:28:23;12.20;99.90
13591;DHT22;6866;50.778;7.206;2022-12-29T10:30:50;12.20;99.80
13591;DHT22;6866;50.778;7.206;2022-12-29T10:33:36;12.20;99.50
13591;DHT22;6866;50.778;7.206;2022-12-29T10:39:14;12.30;99.90
13591;DHT22;6866;50.778;7.206;2022-12-29T10:41:48;12.30;99.90
13591;DHT22;6866;50.778;7.206;2022-12-29T10:44:17;12.30;99.90
13591;DHT22;6866;50.778;7.206;2022-12-29T10:46:52;12.30;99.90
13591;DHT22;6866;50.778;7.206;2022-12-29T10:49:19;12.30;99.50
13591;DHT22;6866;50.778;7.206;2022-12-29T10:51:47;12.30;98.80
13591;DHT22;6866;50.778;7.206;2022-12-29T10:54:27;12.20;98.10
13591;DHT22;6866;50.778;7.206;2022-12-29T10:57:26;12.20;99.00
13591;DHT22;6866;50.778;7.206;2022-12-29T10:59:53;12.20;98.40
13591;DHT22;6866;50.778;7.206;2022-12-29T11:03:01;12.20;99.10
13591;DHT22;6866;50.778;7.206;2022-12-29T11:05:57;12.20;99.90
13591;DHT22;6866;50.778;7.206;2022-12-29T11:08:31;12.30;99.80
13591;DHT22;6866;50.778;7.206;2022-12-29T11:11:08;12.30;98.10
13591;DHT22;6866;50.778;7.206;2022-12-29T11:13:49;12.30;96.40
13591;DHT22;6866;50.778;7.206;2022-12-29T11:16:15;12.30;97.60
13591;DHT22;6866;50.778;7.206;2022-12-29T11:18:51;12.40;95.80
13591;DHT22;6866;50.778;7.206;2022-12-29T11:21:33;12.40;96.30
13591;DHT22;6866;50.778;7.206;2022-12-29T11:24:04;12.50;95.40
13591;DHT22;6866;50.778;7.206;2022-12-29T11:26:32;12.60;94.80
13591;DHT22;6866;50.778;7.206;2022-12-29T11:31:43;12.60;95.40
13591;DHT22;6866;50.778;7.206;2022-12-29T11:34:11;12.60;94.40
13591;DHT22;6866;50.778;7.206;2022-12-29T11:36:41;12.60;95.30
13591;DHT22;6866;50.778;7.206;2022-12-29T11:39:26;12.70;93.40
13591;DHT22;6866;50.778;7.206;2022-12-29T11:41:53;12.70;94.10
13591;DHT22;6866;50.778;7.206;2022-12-29T11:44:19;12.80;92.60
13591;DHT22;6866;50.778;7.206;2022-12-29T11:46:48;12.90;92.90
13591;DHT22;6866;50.778;7.206;2022-12-29T11:49:20;12.90;93.30
13591;DHT22;6866;50.778;7.206;2022-12-29T11:51:49;12.90;92.00
13591;DHT22;6866;50.778;7.206;2022-12-29T11:56:49;12.80;93.00
13591;DHT22;6866;50.778;7.206;2022-12-29T12:01:57;12.80;93.10
13591;DHT22;6866;50.778;7.206;2022-12-29T12:04:31;12.80;93.10
13591;DHT22;6866;50.778;7.206;2022-12-29T12:07:11;12.70;92.70
13591;DHT22;6866;50.778;7.206;2022-12-29T12:09:51;12.70;93.60
13591;DHT22;6866;50.778;7.206;2022-12-29T12:15:41;12.60;93.80
13591;DHT22;6866;50.778;7.206;2022-12-29T12:18:09;12.60;93.30
13591;DHT22;6866;50.778;7.206;2022-12-29T12:20:53;12.50;92.20
13591;DHT22;6866;50.778;7.206;2022-12-29T12:23:41;12.50;92.50
13591;DHT22;6866;50.778;7.206;2022-12-29T12:26:20;12.50;93.00
13591;DHT22;6866;50.778;7.206;2022-12-29T12:29:09;12.50;93.10
13591;DHT22;6866;50.778;7.206;2022-12-29T12:34:05;12.50;93.50
13591;DHT22;6866;50.778;7.206;2022-12-29T12:36:49;12.40;92.90
13591;DHT22;6866;50.778;7.206;2022-12-29T12:39:26;12.40;93.90
13591;DHT22;6866;50.778;7.206;2022-12-29T12:45:28;12.30;93.80
13591;DHT22;6866;50.778;7.206;2022-12-29T12:51:04;12.30;94.90
13591;DHT22;6866;50.778;7.206;2022-12-29T12:56:22;12.30;93.20
13591;DHT22;6866;50.778;7.206;2022-12-29T13:02:01;12.30;92.50
13591;DHT22;6866;50.778;7.206;2022-12-29T13:10:43;12.20;93.00
13591;DHT22;6866;50.778;7.206;2022-12-29T13:16:18;12.20;91.80
13591;DHT22;6866;50.778;7.206;2022-12-29T13:19:00;12.20;92.20
13591;DHT22;6866;50.778;7.206;2022-12-29T13:24:15;12.20;92.40
13591;DHT22;6866;50.778;7.206;2022-12-29T13:29:43;12.30;92.40
13591;DHT22;6866;50.778;7.206;2022-12-29T13:32:42;12.30;91.70
13591;DHT22;6866;50.778;7.206;2022-12-29T13:38:15;12.20;92.90
13591;DHT22;6866;50.778;7.206;2022-12-29T13:40:46;12.10;92.30
13591;DHT22;6866;50.778;7.206;2022-12-29T13:43:13;12.20;93.10
13591;DHT22;6866;50.778;7.206;2022-12-29T13:45:42;12.20;93.30
13591;DHT22;6866;50.778;7.206;2022-12-29T13:50:37;12.10;93.10
13591;DHT22;6866;50.778;7.206;2022-12-29T13:53:15;12.10;93.60
13591;DHT22;6866;50.778;7.206;2022-12-29T13:55:46;12.10;93.80
13591;DHT22;6866;50.778;7.206;2022-12-29T14:03:49;12.10;92.80
13591;DHT22;6866;50.778;7.206;2022-12-29T14:06:25;12.10;93.60
13591;DHT22;6866;50.778;7.206;2022-12-29T14:08:52;12.10;93.00
13591;DHT22;6866;50.778;7.206;2022-12-29T14:11:20;12.10;93.20
13591;DHT22;6866;50.778;7.206;2022-12-29T14:13:46;12.10;92.50
13591;DHT22;6866;50.778;7.206;2022-12-29T14:16:32;12.10;92.50
13591;DHT22;6866;50.778;7.206;2022-12-29T14:19:15;12.20;92.90
13591;DHT22;6866;50.778;7.206;2022-12-29T14:21:48;12.30;92.80
13591;DHT22;6866;50.778;7.206;2022-12-29T14:27:00;12.30;91.40
13591;DHT22;6866;50.778;7.206;2022-12-29T14:31:54;12.20;91.50
13591;DHT22;6866;50.778;7.206;2022-12-29T14:36:58;12.10;92.70
13591;DHT22;6866;50.778;7.206;2022-12-29T14:39:40;12.10;92.10
13591;DHT22;6866;50.778;7.206;2022-12-29T14:42:10;12.10;92.10
13591;DHT22;6866;50.778;7.206;2022-12-29T14:47:16;12.00;92.10
13591;DHT22;6866;50.778;7.206;2022-12-29T14:49:43;12.00;92.10
13591;DHT22;6866;50.778;7.206;2022-12-29T14:52:19;12.10;92.80
13591;DHT22;6866;50.778;7.206;2022-12-29T14:54:51;12.00;92.40
13591;DHT22;6866;50.778;7.206;2022-12-29T14:57:30;12.00;92.70
13591;DHT22;6866;50.778;7.206;2022-12-29T15:00:19;12.00;93.20
13591;DHT22;6866;50.778;7.206;2022-12-29T15:02:50;11.90;93.00
13591;DHT22;6866;50.778;7.206;2022-12-29T15:08:04;11.80;93.60
13591;DHT22;6866;50.778;7.206;2022-12-29T15:10:45;11.80;94.00
13591;DHT22;6866;50.778;7.206;2022-12-29T15:13:18;11.70;94.60
13591;DHT22;6866;50.778;7.206;2022-12-29T15:15:46;11.70;94.90
13591;DHT22;6866;50.778;7.206;2022-12-29T15:18:22;11.70;96.10
13591;DHT22;6866;50.778;7.206;2022-12-29T15:21:05;11.70;98.20
13591;DHT22;6866;50.778;7.206;2022-12-29T15:23:31;11.60;99.60
13591;DHT22;6866;50.778;7.206;2022-12-29T15:25:58;11.40;99.90
13591;DHT22;6866;50.778;7.206;2022-12-29T15:28:24;11.30;99.90
13591;DHT22;6866;50.778;7.206;2022-12-29T15:30:52;11.20;99.90
13591;DHT22;6866;50.778;7.206;2022-12-29T15:33:18;11.10;99.90
13591;DHT22;6866;50.778;7.206;2022-12-29T15:35:50;11.00;99.90
13591;DHT22;6866;50.778;7.206;2022-12-29T15:38:22;10.90;99.90
13591;DHT22;6866;50.778;7.206;2022-12-29T15:40:51;10.80;99.90
13591;DHT22;6866;50.778;7.206;2022-12-29T15:45:53;10.80;99.90
13591;DHT22;6866;50.778;7.206;2022-12-29T15:48:22;10.80;99.90
13591;DHT22;6866;50.778;7.206;2022-12-29T15:50:48;10.70;99.90
13591;DHT22;6866;50.778;7.206;2022-12-29T15:53:33;10.60;99.90
13591;DHT22;6866;50.778;7.206;2022-12-29T15:56:06;10.70;99.90
13591;DHT22;6866;50.778;7.206;2022-12-29T15:58:40;10.60;99.90
13591;DHT22;6866;50.778;7.206;2022-12-29T16:01:37;10.60;99.90
13591;DHT22;6866;50.778;7.206;2022-12-29T16:04:07;10.60;99.90
13591;DHT22;6866;50.778;7.206;2022-12-29T16:06:38;10.60;99.90
13591;DHT22;6866;50.778;7.206;2022-12-29T16:09:18;10.50;99.90
13591;DHT22;6866;50.778;7.206;2022-12-29T16:11:47;10.50;99.90
13591;DHT22;6866;50.778;7.206;2022-12-29T16:14:21;10.40;99.90
13591;DHT22;6866;50.778;7.206;2022-12-29T16:16:48;10.40;99.90
13591;DHT22;6866;50.778;7.206;2022-12-29T16:19:34;10.50;99.90
13591;DHT22;6866;50.778;7.206;2022-12-29T16:22:02;10.50;99.90
13591;DHT22;6866;50.778;7.206;2022-12-29T16:24:31;10.40;99.90
13591;DHT22;6866;50.778;7.206;2022-12-29T16:27:15;10.30;99.90
13591;DHT22;6866;50.778;7.206;2022-12-29T16:29:44;10.30;99.90
13591;DHT22;6866;50.778;7.206;2022-12-29T16:32:28;10.20;99.90
13591;DHT22;6866;50.778;7.206;2022-12-29T16:35:11;10.10;99.90
13591;DHT22;6866;50.778;7.206;2022-12-29T16:37:36;10.10;99.90
13591;DHT22;6866;50.778;7.206;2022-12-29T16:42:49;10.10;99.90
13591;DHT22;6866;50.778;7.206;2022-12-29T16:50:31;10.00;99.90
13591;DHT22;6866;50.778;7.206;2022-12-29T16:52:58;10.00;99.90
13591;DHT22;6866;50.778;7.206;2022-12-29T16:55:23;9.90;99.90
13591;DHT22;6866;50.778;7.206;2022-12-29T16:57:52;10.00;99.90
13591;DHT22;6866;50.778;7.206;2022-12-29T17:00:24;10.00;99.90
13591;DHT22;6866;50.778;7.206;2022-12-29T17:02:56;10.10;99.90
13591;DHT22;6866;50.778;7.206;2022-12-29T17:05:22;10.20;99.90
13591;DHT22;6866;50.778;7.206;2022-12-29T17:07:48;10.20;99.90
13591;DHT22;6866;50.778;7.206;2022-12-29T17:10:14;10.20;99.90
13591;DHT22;6866;50.778;7.206;2022-12-29T17:12:41;10.20;99.90
13591;DHT22;6866;50.778;7.206;2022-12-29T17:15:26;10.10;99.90
13591;DHT22;6866;50.778;7.206;2022-12-29T17:17:55;10.20;99.90
13591;DHT22;6866;50.778;7.206;2022-12-29T17:20:26;10.10;99.90
13591;DHT22;6866;50.778;7.206;2022-12-29T17:22:52;10.00;99.90
13591;DHT22;6866;50.778;7.206;2022-12-29T17:25:36;10.00;99.90
13591;DHT22;6866;50.778;7.206;2022-12-29T17:28:23;10.00;99.90
13591;DHT22;6866;50.778;7.206;2022-12-29T17:30:51;10.00;99.90
13591;DHT22;6866;50.778;7.206;2022-12-29T17:33:19;10.00;99.90
13591;DHT22;6866;50.778;7.206;2022-12-29T17:35:45;9.90;99.90
13591;DHT22;6866;50.778;7.206;2022-12-29T17:38:17;10.00;99.90
13591;DHT22;6866;50.778;7.206;2022-12-29T17:40:43;10.00;99.90
13591;DHT22;6866;50.778;7.206;2022-12-29T17:43:13;10.00;99.90
13591;DHT22;6866;50.778;7.206;2022-12-29T17:45:39;10.00;99.90
13591;DHT22;6866;50.778;7.206;2022-12-29T17:48:13;10.00;99.90
13591;DHT22;6866;50.778;7.206;2022-12-29T17:50:39;10.00;99.90
13591;DHT22;6866;50.778;7.206;2022-12-29T17:53:11;10.00;99.90
13591;DHT22;6866;50.778;7.206;2022-12-29T17:55:38;10.00;99.90
13591;DHT22;6866;50.778;7.206;2022-12-29T18:00:45;9.90;99.90
13591;DHT22;6866;50.778;7.206;2022-12-29T18:03:15;9.90;99.90
13591;DHT22;6866;50.778;7.206;2022-12-29T18:05:42;9.80;99.90
13591;DHT22;6866;50.778;7.206;2022-12-29T18:08:09;9.80;99.90
13591;DHT22;6866;50.778;7.206;2022-12-29T18:10:35;9.80;99.90
13591;DHT22;6866;50.778;7.206;2022-12-29T18:13:01;9.80;99.90
13591;DHT22;6866;50.778;7.206;2022-12-29T18:15:30;9.70;99.90
13591;DHT22;6866;50.778;7.206;2022-12-29T18:17:59;9.60;99.90
13591;DHT22;6866;50.778;7.206;2022-12-29T18:20:27;9.70;99.90
13591;DHT22;6866;50.778;7.206;2022-12-29T18:22:53;9.60;99.90